Halltown, West Virginia
Current Conditions -  °F | °C
As of 12:53 PM on Tuesday 21 Oct 2014 (Local Time) from KMRB Reporting Station
Scattered Clouds Scattered Clouds  
Wind Chill: 65°   Ceiling: Unl
Heat Index: 65°   Visibility: 10mi
Dew Point: 45°   Wind: 3mph
Humidity: 48%   Direction: NA
Pressure: 29.86"   Gusts: NA
Location:  39.31°N, 77.8°W
Report Text: KMRB 211653Z VRB03KT 10SM FEW038 SCT120 18/07 A2986 RMK AO2 SLP109 T01830072
Loading
Personal Weather Stations






























Interactive Weather Map
Tropical Storm Tracking
New forecast layout! Learn more

10-Day Weather Forecast

Advertisements
Track Severe Weather on mobile